createdAt,value
2022-11-08T15:31:59.909Z,21.02
2022-11-08T15:34:40.993Z,21.90
2022-11-08T15:37:42.938Z,20.92
2022-11-08T15:40:24.598Z,21.25
2022-11-08T15:42:52.889Z,23.00
2022-11-08T15:45:25.760Z,23.63
2022-11-08T15:47:54.883Z,22.80
2022-11-08T15:50:30.540Z,24.70
2022-11-08T15:53:00.811Z,23.55
2022-11-08T15:55:51.991Z,23.08
2022-11-08T15:58:37.164Z,23.73
2022-11-08T16:01:06.408Z,26.95
2022-11-08T16:03:35.351Z,27.75
2022-11-08T16:06:02.551Z,27.08
2022-11-08T16:08:29.994Z,25.30
2022-11-08T16:11:01.631Z,26.05
2022-11-08T16:13:32.126Z,26.67
2022-11-08T16:16:00.556Z,28.80
2022-11-08T16:18:28.273Z,26.85
2022-11-08T16:20:55.696Z,27.75
2022-11-08T16:23:22.972Z,26.55
2022-11-08T16:25:53.514Z,28.33
2022-11-08T16:28:34.428Z,28.50
2022-11-08T16:31:03.074Z,31.00
2022-11-08T16:33:32.417Z,31.45
2022-11-08T16:36:03.850Z,34.55
2022-11-08T16:38:36.329Z,33.80
2022-11-08T16:41:05.284Z,28.95
2022-11-08T16:43:33.815Z,27.45
2022-11-08T16:46:07.168Z,28.67
2022-11-08T16:48:39.646Z,28.05
2022-11-08T16:51:13.997Z,26.40
2022-11-08T16:53:41.380Z,27.80
2022-11-08T16:56:08.997Z,26.98
2022-11-08T16:58:36.419Z,27.50
2022-11-08T17:01:10.292Z,26.80
2022-11-08T17:03:38.252Z,27.02
2022-11-08T17:06:05.825Z,28.60
2022-11-08T17:08:33.157Z,27.52
2022-11-08T17:11:01.025Z,27.98
2022-11-08T17:13:28.312Z,28.85
2022-11-08T17:15:55.909Z,30.08
2022-11-08T17:18:24.116Z,29.58
2022-11-08T17:20:52.463Z,31.45
2022-11-08T17:23:22.832Z,32.20
2022-11-08T17:25:50.201Z,34.78
2022-11-08T17:28:18.163Z,34.50
2022-11-08T17:30:45.623Z,34.72
2022-11-08T17:33:13.870Z,32.85
2022-11-08T17:35:44.349Z,37.58
2022-11-08T17:38:15.388Z,45.60
2022-11-08T17:40:42.885Z,44.90
2022-11-08T17:43:10.838Z,43.83
2022-11-08T17:45:38.344Z,42.10
2022-11-08T17:48:05.640Z,37.22
2022-11-08T17:50:33.084Z,36.83
2022-11-08T17:53:00.569Z,37.17
2022-11-08T17:55:28.235Z,38.30
2022-11-08T17:57:56.087Z,36.58
2022-11-08T18:00:23.701Z,38.00
2022-11-08T18:02:51.311Z,37.13
2022-11-08T18:05:18.394Z,36.80
2022-11-08T18:07:45.936Z,38.75
2022-11-08T18:10:14.765Z,37.05
2022-11-08T18:12:42.366Z,35.13
2022-11-08T18:15:10.347Z,38.33
2022-11-08T18:17:37.868Z,37.85
2022-11-08T18:20:06.332Z,37.85
2022-11-08T18:22:36.752Z,39.60
2022-11-08T18:25:05.208Z,38.50
2022-11-08T18:27:32.869Z,37.35
2022-11-08T18:30:03.005Z,37.55
2022-11-08T18:32:30.750Z,37.65
2022-11-08T18:34:58.002Z,39.10
2022-11-08T18:37:26.597Z,38.05
2022-11-08T18:39:54.325Z,39.70
2022-11-08T18:42:22.194Z,38.88
2022-11-08T18:44:49.659Z,37.63
2022-11-08T18:47:25.411Z,39.58
2022-11-08T18:49:56.357Z,39.38
2022-11-08T18:52:23.930Z,41.22
2022-11-08T18:54:51.938Z,42.83
2022-11-08T18:57:20.543Z,42.88
2022-11-08T18:59:48.506Z,39.63
2022-11-08T19:02:16.220Z,42.55
2022-11-08T19:04:43.342Z,44.05
2022-11-08T19:07:10.928Z,44.85
2022-11-08T19:09:40.166Z,45.50
2022-11-08T19:12:07.762Z,45.80
2022-11-08T19:14:37.262Z,45.78
2022-11-08T19:17:05.116Z,43.78
2022-11-08T19:19:32.763Z,47.17
2022-11-08T19:22:00.418Z,44.97
2022-11-08T19:24:31.174Z,46.15
2022-11-08T19:26:59.686Z,47.95
2022-11-08T19:29:30.196Z,46.78
2022-11-08T19:31:58.018Z,44.75
2022-11-08T19:34:25.354Z,45.38
2022-11-08T19:36:55.787Z,44.42
2022-11-08T19:39:25.294Z,45.70
2022-11-08T19:41:52.704Z,48.28
2022-11-08T19:44:20.524Z,45.50
2022-11-08T19:46:47.980Z,48.20
2022-11-08T19:49:16.001Z,48.00
2022-11-08T19:51:44.706Z,47.97
2022-11-08T19:54:14.230Z,48.70
2022-11-08T19:59:29.774Z,50.20
2022-11-08T20:01:57.202Z,52.55
2022-11-08T20:04:24.972Z,53.88
2022-11-08T20:06:52.473Z,54.92
2022-11-08T20:09:20.151Z,52.20
2022-11-08T20:11:47.788Z,51.40
2022-11-08T20:14:17.686Z,50.70
2022-11-08T20:16:53.211Z,50.67
2022-11-08T20:19:21.727Z,50.45
2022-11-08T20:21:49.831Z,52.22
2022-11-08T20:24:17.847Z,50.53
2022-11-08T20:26:45.931Z,47.97
2022-11-08T20:29:15.365Z,49.83
2022-11-08T20:31:43.178Z,50.65
2022-11-08T20:34:12.418Z,52.72
2022-11-08T20:36:43.128Z,51.78
2022-11-08T20:39:12.622Z,52.58
2022-11-08T20:41:41.933Z,50.50
2022-11-08T20:44:13.815Z,51.60
2022-11-08T20:46:41.846Z,52.40
2022-11-08T20:49:09.752Z,53.20
2022-11-08T20:51:37.837Z,53.08
2022-11-08T20:54:05.598Z,54.00
2022-11-08T20:56:33.178Z,54.25
2022-11-08T20:59:01.097Z,51.50
2022-11-08T21:01:31.158Z,52.90
2022-11-08T21:03:58.673Z,53.22
2022-11-08T21:06:27.825Z,52.78
2022-11-08T21:09:01.960Z,52.63
2022-11-08T21:11:34.960Z,52.08
2022-11-08T21:14:03.849Z,52.05
2022-11-08T21:16:42.406Z,51.17
2022-11-08T21:19:14.900Z,50.63
2022-11-08T21:21:46.655Z,50.92
2022-11-08T21:24:14.349Z,51.20
2022-11-08T21:26:44.373Z,50.38
2022-11-08T21:29:11.560Z,51.03
2022-11-08T21:31:38.772Z,50.22
2022-11-08T21:34:06.303Z,49.97
2022-11-08T21:36:34.304Z,51.03
2022-11-08T21:39:01.657Z,51.22
2022-11-08T21:41:28.883Z,48.95
2022-11-08T21:43:56.687Z,49.05
2022-11-08T21:46:27.442Z,51.15
2022-11-08T21:49:00.430Z,48.78
2022-11-08T21:51:29.682Z,48.33
2022-11-08T21:53:58.840Z,50.03
2022-11-08T21:56:29.656Z,49.47
2022-11-08T21:58:56.829Z,49.80
2022-11-08T22:01:29.910Z,49.65
2022-11-08T22:03:58.549Z,50.53
2022-11-08T22:06:25.806Z,51.08
2022-11-08T22:08:52.831Z,52.40
2022-11-08T22:11:19.818Z,51.45
2022-11-08T22:13:46.928Z,51.20
2022-11-08T22:16:13.884Z,52.97
2022-11-08T22:21:41.273Z,53.75
2022-11-08T22:24:22.694Z,52.65
2022-11-08T22:26:51.875Z,54.67
2022-11-08T22:29:19.426Z,54.13
2022-11-08T22:31:47.088Z,52.83
2022-11-08T22:34:14.282Z,53.17
2022-11-08T22:36:45.210Z,54.05
2022-11-08T22:39:20.623Z,53.95
2022-11-08T22:41:50.917Z,55.92
2022-11-08T22:44:18.899Z,53.97
2022-11-08T22:46:47.430Z,54.78
2022-11-08T22:49:15.454Z,53.85
2022-11-08T22:51:43.193Z,54.38
2022-11-08T22:54:10.685Z,54.65
2022-11-08T22:56:38.417Z,56.70
2022-11-08T22:59:05.464Z,54.08
2022-11-08T23:01:33.179Z,56.30
2022-11-08T23:04:00.630Z,53.70
2022-11-08T23:06:27.674Z,55.47
2022-11-08T23:08:54.755Z,55.83
2022-11-08T23:11:40.473Z,53.78
2022-11-08T23:14:32.433Z,55.63
2022-11-08T23:17:03.014Z,55.13
2022-11-08T23:19:48.542Z,56.67
2022-11-08T23:22:36.354Z,54.33
2022-11-08T23:25:04.725Z,55.25
2022-11-08T23:27:50.426Z,53.97
2022-11-08T23:30:37.267Z,55.92
2022-11-08T23:33:05.899Z,55.92
2022-11-08T23:35:33.187Z,55.90
2022-11-08T23:38:00.171Z,55.97
2022-11-08T23:40:45.808Z,57.85
2022-11-08T23:43:32.483Z,56.78
2022-11-08T23:46:09.711Z,57.17
2022-11-08T23:48:37.818Z,57.53
2022-11-08T23:51:05.837Z,55.45
2022-11-08T23:53:34.711Z,53.85
2022-11-08T23:56:01.692Z,55.03
2022-11-08T23:58:28.926Z,53.83
